Begijnendijk, Belgium
Current Conditions -  °F | °C
As of 6:25 PM on Saturday 25 Oct 2014 (Local Time) from EBDT Reporting Station
Broken Clouds Broken Clouds  
Wind Chill: 55°   Ceiling: 3900
Heat Index: 55°   Visibility: 6mi
Dew Point: 46°   Wind: 7mph
Humidity: 72%   Direction: 270°W
Pressure: 30.15"   Gusts: NA
Location:  51.02°N, 4.78°E
Report Text: EBDT 251625Z AUTO 27006KT 9999 BKN039/// BKN065/// 13/08 Q1021 BLU
Loading
Personal Weather Stations






























Interactive Weather Map
Tropical Storm Tracking
New forecast layout! Learn more

10-Day Weather Forecast

Advertisements
Track Severe Weather on mobile